Boone, NC

5:09 AM EST on March 06, 2015 (GMT -0500)
Brown's Chapel | Change Station
CLOSE
Current Station
Personal Weather Station
Location: Boone, NC
Elevation: 3353 ft
Nearby Weather Stations
Active Advisory: Winter Weather Advisory Active Notice: Record Report

Elev 3353 ft 36.22 °N, 81.61 °W | Updated 7 minutes ago

Partly Cloudy
Partly Cloudy
10.8 °F
Feels Like 11 °F
N
0.0
Wind Variable Wind from NNE

Today
High -- | Low -- °F
--% Chance of Precip.
Yesterday
High -- | Low -- °F
Precip. -- in
6:50 AM 6:25 PM
Full, 100% visible
Pressure 30.25 in
Visibility 10.0 miles
Clouds Clear
Windchill 11 °F
Dew Point 9 °F
Humidity 93%
Rainfall 0.00 in
Snow Depth Not available.
UV 0 out of 12
Pollen .80 out of 12
Air Quality Not available.
Flu Activity Not available.
METAR KTNB 060955Z AUTO 30008G16KT 10SM CLR M09/M12 A3025 RMK AO2 T10951123

More Conditions Fewer Conditions

Pressure 30.25 in
Visibility 10.0 miles
Clouds Clear
Windchill 11 °F
Dew Point 9 °F
Humidity 93%
Rainfall 0.00 in
Snow Depth Not available.
UV 0 out of 12
Pollen .80 out of 12
Air Quality Not available.
Flu Activity Not available.
METAR KTNB 060955Z AUTO 30008G16KT 10SM CLR M09/M12 A3025 RMK AO2 T10951123

More Conditions Fewer Conditions

10-Day Weather Forecast

Almanac

Astronomy

Mar. 06, 2015 Rise Set
Actual Time
Civil Twilight
Nautical Twilight
Astronomical Twilight
Moon
Length of Visible Light
Length of Day
Tomorrow will be .
, % of the Moon is Illuminated

Today's Extremes

State Highs State Lows

Community

WunderPhotos

Upload Photos

1,803,216 photos uploaded!

WunderBlogs® & News

Nearby

Air Quality

  Air Quality AQ Index Pollutant
Not available.

Snow Depth

Station Depth Elevation

Earthquake Activity

City Distance Mag. Time & Date
Minimum magnitude displayed is 2.5.

Coastal Water Temperatures

Place Temperature

Nearby Weather Stations

Winter Weather Advisory
Statement as of 3:54 AM EST on March 06, 2015

... Winter Weather Advisory remains in effect until noon EST
today...

* locations... northwest North Carolina.

* Hazard types... black ice.

* Timing... this morning.

* Impacts... slippery conditions on roads and sidewalks.

* Temperatures... lows this morning from around 10 in the mountains
to the lower 20s in the Piedmont.

Precautionary/preparedness actions...

A Winter Weather Advisory means that areas of black ice will
cause travel difficulties. Be prepared for slippery roads and...
and use caution while driving.